Time;durP1;ratioP1;P1;durP2;ratioP2;P2;SDS_P1;SDS_P2;PMS_P1;PMS_P2;Temp;Humidity;BMP_temperature;BMP_pressure;BME280_temperature;BME280_humidity;BME280_pressure;Samples;Min_cycle;Max_cycle;Signal;HPM_P1;HPM_P2
2021/08/15 00:01:13;;;;;;;12.38;10.27;;;;;;;23.83;55.06;101167.63;5093181;28;20016;-74
2021/08/15 00:03:38;;;;;;;12.43;11.45;;;;;;;23.89;54.37;101170.84;5093033;28;20020;-75
2021/08/15 00:06:04;;;;;;;12.23;11.18;;;;;;;23.86;54.62;101166.03;5093149;28;20497;-74
2021/08/15 00:08:31;;;;;;;10.70;9.77;;;;;;;23.91;54.81;101174.03;5092862;28;20386;-74
2021/08/15 00:10:57;;;;;;;12.57;11.40;;;;;;;23.92;54.64;101167.28;5092985;28;20479;-75
2021/08/15 00:13:23;;;;;;;11.70;10.73;;;;;;;23.88;54.83;101166.44;5092748;28;20089;-75
2021/08/15 00:15:49;;;;;;;12.40;11.20;;;;;;;23.92;54.44;101159.69;5074848;28;20031;-75
2021/08/15 00:18:15;;;;;;;11.85;10.88;;;;;;;23.93;54.32;101160.50;5092839;28;20028;-74
2021/08/15 00:20:42;;;;;;;11.02;9.93;;;;;;;23.89;54.72;101156.91;5092525;28;20022;-74
2021/08/15 00:23:08;;;;;;;11.32;10.43;;;;;;;23.82;54.94;101156.88;5093055;28;20056;-74
2021/08/15 00:25:33;;;;;;;10.63;9.90;;;;;;;23.81;55.09;101156.09;5092901;28;20512;-74
2021/08/15 00:27:59;;;;;;;9.35;8.57;;;;;;;23.89;54.57;101146.53;5092553;28;20028;-75
2021/08/15 00:30:26;;;;;;;9.77;9.13;;;;;;;23.85;54.76;101151.28;5093136;28;20052;-88
2021/08/15 00:32:51;;;;;;;13.32;10.20;;;;;;;23.83;54.64;101147.31;5092699;28;20405;-75
2021/08/15 00:35:17;;;;;;;11.73;10.73;;;;;;;23.78;54.66;101134.53;5092802;28;20024;-74
2021/08/15 00:37:43;;;;;;;9.57;8.77;;;;;;;23.83;54.68;101136.16;5092694;28;20028;-74
2021/08/15 00:40:09;;;;;;;12.70;11.80;;;;;;;23.82;54.45;101135.34;5092724;28;20032;-74
2021/08/15 00:42:35;;;;;;;10.68;9.85;;;;;;;23.76;54.78;101134.94;5092572;28;20107;-75
2021/08/15 00:45:01;;;;;;;14.65;13.15;;;;;;;23.83;54.61;101134.16;5092687;28;20111;-74
2021/08/15 00:47:30;;;;;;;12.35;11.25;;;;;;;23.84;54.78;101127.38;5092663;28;20032;-75
2021/08/15 00:49:57;;;;;;;15.02;13.60;;;;;;;23.87;54.82;101128.56;5092745;28;20035;-74
2021/08/15 00:52:23;;;;;;;13.82;10.73;;;;;;;23.86;54.68;101124.19;5092606;28;20032;-74
2021/08/15 00:54:49;;;;;;;13.95;12.85;;;;;;;23.89;54.63;101129.00;5092711;28;20031;-74
2021/08/15 00:57:14;;;;;;;14.48;12.30;;;;;;;23.91;54.50;101130.19;5092423;28;20474;-75
2021/08/15 00:59:42;;;;;;;13.35;12.25;;;;;;;23.84;54.64;101123.78;5092541;28;20020;-77
2021/08/15 01:02:08;;;;;;;16.20;14.63;;;;;;;23.89;54.69;101124.22;5092404;28;20107;-74
2021/08/15 01:04:37;;;;;;;13.57;12.43;;;;;;;23.94;54.17;101121.03;5092375;28;20096;-74
2021/08/15 01:07:04;;;;;;;13.43;12.10;;;;;;;23.95;54.28;101116.22;5092410;28;20035;-74
2021/08/15 01:09:31;;;;;;;15.52;13.95;;;;;;;23.89;54.41;101118.63;5074212;28;20039;-75
2021/08/15 01:11:57;;;;;;;15.52;14.05;;;;;;;23.92;54.60;101112.25;5092357;28;20028;-75
2021/08/15 01:14:22;;;;;;;16.92;15.32;;;;;;;23.90;54.40;101113.84;5092184;28;20031;-75
2021/08/15 01:16:48;;;;;;;17.25;15.45;;;;;;;23.94;54.49;101109.06;5092352;28;20024;-74
2021/08/15 01:19:14;;;;;;;15.70;14.18;;;;;;;23.92;54.30;101105.88;5092328;28;20051;-74
2021/08/15 01:21:46;;;;;;;15.55;14.15;;;;;;;23.84;54.62;101105.06;5092292;28;20106;-74
2021/08/15 01:24:13;;;;;;;14.65;13.25;;;;;;;23.96;54.15;101101.91;5092299;28;20053;-75
2021/08/15 01:26:40;;;;;;;13.68;12.52;;;;;;;24.00;53.88;101105.50;5092189;28;20025;-75
2021/08/15 01:29:06;;;;;;;15.65;14.45;;;;;;;23.94;54.44;101097.91;5091939;28;20517;-74
2021/08/15 01:31:31;;;;;;;16.02;14.63;;;;;;;23.85;54.64;101103.06;5092673;28;20034;-75
2021/08/15 01:33:57;;;;;;;15.10;13.80;;;;;;;23.88;54.44;101089.13;5095880;28;20031;-75
2021/08/15 01:36:23;;;;;;;16.40;15.10;;;;;;;23.92;54.06;101092.72;5095854;28;20505;-74
2021/08/15 01:38:50;;;;;;;17.77;16.27;;;;;;;23.90;54.24;101088.72;5095817;28;20059;-74
2021/08/15 01:41:17;;;;;;;16.23;14.93;;;;;;;23.88;54.39;101080.75;5095838;28;20020;-75
2021/08/15 01:43:47;;;;;;;16.60;15.05;;;;;;;23.92;53.97;101083.53;5095771;28;20051;-75
2021/08/15 01:46:12;;;;;;;;;;;;;;;23.94;54.02;101086.72;5096152;28;20028;-75
2021/08/15 01:48:39;;;;;;;13.50;12.30;;;;;;;23.89;53.82;101081.56;5095558;28;20350;-75
2021/08/15 01:51:05;;;;;;;16.63;15.13;;;;;;;23.85;54.14;101070.38;5095516;28;20020;-75
2021/08/15 01:53:30;;;;;;;14.48;13.25;;;;;;;23.86;53.95;101074.75;5095548;28;20020;-74
2021/08/15 01:55:56;;;;;;;11.70;10.43;;;;;;;23.85;53.65;101073.16;5095515;28;20024;-75
2021/08/15 01:58:21;;;;;;;13.13;12.13;;;;;;;23.84;53.90;101068.78;5095701;28;20024;-88
2021/08/15 02:00:47;;;;;;;30.85;13.60;;;;;;;23.84;53.82;101070.78;5095357;28;20020;-86
2021/08/15 02:03:13;;;;;;;15.30;13.90;;;;;;;23.85;53.72;101072.38;5095405;28;20028;-74
2021/08/15 02:05:42;;;;;;;17.17;15.60;;;;;;;23.92;53.70;101066.81;5095296;28;20028;-75
2021/08/15 02:08:08;;;;;;;16.30;15.07;;;;;;;23.88;53.67;101065.97;5095173;28;20429;-75
2021/08/15 02:10:35;;;;;;;16.02;14.65;;;;;;;23.86;53.63;101058.00;5095165;28;20394;-74
2021/08/15 02:13:04;;;;;;;15.25;13.73;;;;;;;23.86;53.85;101058.00;5095216;28;20031;-75
2021/08/15 02:15:31;;;;;;;14.70;12.20;;;;;;;23.93;53.19;101057.22;5086964;28;20024;-75
2021/08/15 02:17:59;;;;;;;12.70;11.50;;;;;;;23.87;53.72;101053.22;5095049;28;20036;-74
2021/08/15 02:20:25;;;;;;;16.38;14.95;;;;;;;23.84;53.73;101051.25;5095117;28;20024;-74
2021/08/15 02:22:50;;;;;;;14.90;13.48;;;;;;;23.80;53.83;101048.44;5094997;28;20024;-74
2021/08/15 02:25:18;;;;;;;15.95;13.90;;;;;;;23.86;53.52;101052.44;5095049;28;20441;-74
2021/08/15 02:27:44;;;;;;;17.25;15.68;;;;;;;23.86;53.61;101048.84;5094809;28;20482;-75
2021/08/15 02:30:12;;;;;;;18.17;16.52;;;;;;;23.85;53.75;101047.25;5094539;28;20401;-75
2021/08/15 02:32:39;;;;;;;16.52;14.23;;;;;;;23.71;54.08;101050.81;5094816;28;20051;-87
2021/08/15 02:35:06;;;;;;;18.38;16.60;;;;;;;23.80;53.60;101045.66;5094766;28;20492;-74
2021/08/15 02:37:32;;;;;;;11.45;10.05;;;;;;;23.89;53.17;101037.72;5094670;28;20107;-74
2021/08/15 02:40:00;;;;;;;17.05;15.38;;;;;;;23.91;53.22;101031.72;5094744;28;20024;-75
2021/08/15 02:42:27;;;;;;;15.45;14.15;;;;;;;23.88;53.31;101036.13;5094347;28;20463;-75
2021/08/15 02:44:53;;;;;;;14.82;13.50;;;;;;;23.95;53.02;101027.72;5094547;28;20028;-74
2021/08/15 02:47:19;;;;;;;16.45;14.98;;;;;;;23.98;53.17;101040.09;5094639;28;20028;-75
2021/08/15 02:49:44;;;;;;;12.73;11.43;;;;;;;24.00;52.89;101034.91;5076304;28;20448;-76
2021/08/15 02:52:10;;;;;;;15.32;14.07;;;;;;;24.05;52.93;101020.56;5094507;28;20028;-75
2021/08/15 02:54:36;;;;;;;16.00;14.43;;;;;;;24.04;52.70;101025.38;5094442;28;20027;-74
2021/08/15 02:57:02;;;;;;;14.88;13.32;;;;;;;24.09;52.57;101024.94;5094243;28;20020;-74
2021/08/15 02:59:28;;;;;;;15.80;14.48;;;;;;;24.07;52.28;101020.97;5076026;28;20054;-75
2021/08/15 03:01:54;;;;;;;15.93;13.57;;;;;;;24.16;52.24;101031.72;5094196;28;20031;-85
2021/08/15 03:04:19;;;;;;;15.27;13.88;;;;;;;24.20;52.00;101032.53;5094291;28;20034;-75
2021/08/15 03:06:45;;;;;;;15.75;14.13;;;;;;;24.18;52.33;101024.56;5093932;28;20024;-74
2021/08/15 03:09:11;;;;;;;16.67;15.00;;;;;;;24.22;52.04;101016.97;5094033;28;20062;-75
2021/08/15 03:11:37;;;;;;;17.02;15.38;;;;;;;24.14;52.15;101020.97;5094094;28;20051;-75
2021/08/15 03:14:02;;;;;;;17.58;15.63;;;;;;;24.09;52.49;101016.56;5093811;28;20031;-74
2021/08/15 03:16:28;;;;;;;16.33;14.73;;;;;;;24.09;52.51;101015.78;5075731;28;20490;-74
2021/08/15 03:18:54;;;;;;;12.00;10.68;;;;;;;24.09;52.49;101015.78;5075575;28;20020;-74
2021/08/15 03:21:20;;;;;;;15.05;10.93;;;;;;;24.09;52.28;101015.78;5076038;28;20039;-75
2021/08/15 03:23:45;;;;;;;13.73;11.02;;;;;;;24.06;52.48;101006.22;5093820;28;20439;-79
2021/08/15 03:26:11;;;;;;;18.33;14.32;;;;;;;24.07;52.23;101005.00;5093749;28;20051;-88
2021/08/15 03:28:37;;;;;;;18.02;12.27;;;;;;;24.08;52.35;101005.81;5093402;28;20444;-82
2021/08/15 03:31:03;;;;;;;17.23;15.48;;;;;;;24.08;52.14;101006.59;5093666;28;20063;-74
2021/08/15 03:33:29;;;;;;;13.80;12.45;;;;;;;24.09;52.30;101010.19;5093722;28;20566;-89
2021/08/15 03:35:55;;;;;;;14.52;13.15;;;;;;;24.09;52.47;101001.81;5093717;28;20107;-75
2021/08/15 03:38:20;;;;;;;12.15;11.05;;;;;;;24.05;52.40;100998.25;5093617;28;20052;-88
2021/08/15 03:40:46;;;;;;;14.35;9.48;;;;;;;24.05;52.37;101006.63;5093478;28;20474;-85
2021/08/15 03:43:11;;;;;;;13.07;9.43;;;;;;;24.04;52.18;101002.25;5093463;28;20024;-88
2021/08/15 03:45:39;;;;;;;20.42;13.55;;;;;;;24.02;52.48;101001.81;5093465;28;20437;-74
2021/08/15 03:48:06;;;;;;;17.40;15.30;;;;;;;24.00;52.41;101001.44;5093391;28;20359;-74
2021/08/15 03:50:31;;;;;;;15.60;13.93;;;;;;;24.01;52.59;100998.22;5093134;28;20081;-75
2021/08/15 03:52:57;;;;;;;15.25;12.57;;;;;;;24.05;52.02;101003.81;5093254;28;20099;-88
2021/08/15 03:55:23;;;;;;;14.23;11.85;;;;;;;24.05;52.03;100996.25;5074560;28;20035;-75
2021/08/15 03:57:48;;;;;;;13.70;12.18;;;;;;;24.09;52.01;100996.25;5093291;28;20028;-75
2021/08/15 04:00:14;;;;;;;15.30;12.57;;;;;;;24.04;52.14;100988.28;5093108;28;20032;-74
2021/08/15 04:02:40;;;;;;;13.40;10.65;;;;;;;24.05;52.11;100993.47;5093072;28;20038;-74
2021/08/15 04:05:06;;;;;;;13.88;12.48;;;;;;;24.05;52.27;100981.50;5093184;28;20381;-75
2021/08/15 04:07:32;;;;;;;15.25;12.60;;;;;;;24.06;52.01;100977.50;5093150;28;20051;-75
2021/08/15 04:09:57;;;;;;;15.48;12.00;;;;;;;24.03;52.04;100990.28;5093123;28;20070;-75
2021/08/15 04:12:23;;;;;;;14.40;11.48;;;;;;;23.99;52.07;100992.25;5093026;28;20443;-74
2021/08/15 04:14:48;;;;;;;16.13;14.55;;;;;;;23.96;52.28;100993.06;5093040;28;20482;-74
2021/08/15 04:17:16;;;;;;;16.35;14.75;;;;;;;23.96;51.98;100990.28;5092934;28;20477;-75
2021/08/15 04:19:43;;;;;;;14.60;12.27;;;;;;;23.98;52.24;100999.03;5093014;28;20023;-75
2021/08/15 04:22:10;;;;;;;13.80;11.43;;;;;;;23.92;52.26;100989.47;5092911;28;20023;-74
2021/08/15 04:24:36;;;;;;;15.13;12.30;;;;;;;23.93;52.31;100990.25;5092755;28;20020;-75
2021/08/15 04:27:02;;;;;;;16.27;13.70;;;;;;;24.00;52.18;100993.06;5092882;28;20021;-74
2021/08/15 04:29:27;;;;;;;16.70;15.02;;;;;;;24.03;51.77;100995.03;5092500;28;20125;-75
2021/08/15 04:31:53;;;;;;;15.68;13.88;;;;;;;24.01;51.67;100991.84;5092702;28;20021;-74
2021/08/15 04:34:20;;;;;;;17.02;15.02;;;;;;;23.96;51.94;101000.66;5092635;28;20032;-77
2021/08/15 04:36:46;;;;;;;19.52;11.43;;;;;;;23.95;52.23;101005.41;5092640;28;20036;-74
2021/08/15 04:39:11;;;;;;;14.18;11.45;;;;;;;23.86;52.22;100995.84;5092657;28;20390;-75
2021/08/15 04:41:37;;;;;;;15.00;12.10;;;;;;;23.85;52.46;100997.81;5092709;28;20024;-75
2021/08/15 04:44:03;;;;;;;13.07;9.25;;;;;;;23.84;52.50;100999.03;5092638;28;20063;-74
2021/08/15 04:46:29;;;;;;;17.27;13.52;;;;;;;23.85;52.56;100995.03;5092749;28;20102;-89
2021/08/15 04:48:54;;;;;;;20.35;11.90;;;;;;;23.84;52.62;100992.66;5092426;28;20032;-74
2021/08/15 04:51:20;;;;;;;14.52;12.57;;;;;;;23.86;52.33;100990.25;5092634;28;20024;-75
2021/08/15 04:53:46;;;;;;;14.40;12.88;;;;;;;24.01;52.29;100984.28;5092523;28;20393;-74
2021/08/15 04:56:11;;;;;;;14.18;12.77;;;;;;;24.12;51.56;100980.69;5092578;28;20132;-75
2021/08/15 04:58:37;;;;;;;10.68;9.45;;;;;;;24.15;51.45;100974.31;5092393;28;20024;-75
2021/08/15 05:01:03;;;;;;;15.50;11.10;;;;;;;24.11;51.50;100984.66;5092662;28;20028;-74
2021/08/15 05:03:29;;;;;;;16.65;12.13;;;;;;;24.08;51.89;100984.28;5074300;28;20119;-74
2021/08/15 05:05:54;;;;;;;12.20;10.95;;;;;;;24.07;51.76;100982.69;5093794;28;20095;-74
2021/08/15 05:08:20;;;;;;;16.52;12.38;;;;;;;24.04;51.71;100968.75;5096275;28;20028;-75
2021/08/15 05:10:46;;;;;;;14.95;11.55;;;;;;;24.03;51.42;100969.91;5096339;28;20020;-74
2021/08/15 05:13:12;;;;;;;14.57;12.48;;;;;;;23.97;51.81;100971.53;5096282;28;20035;-73
2021/08/15 05:15:38;;;;;;;12.13;9.60;;;;;;;23.97;51.58;100979.91;5078123;28;20028;-73
2021/08/15 05:18:04;;;;;;;17.30;10.40;;;;;;;24.01;51.66;100983.47;5078161;28;20493;-74
2021/08/15 05:20:30;;;;;;;16.08;13.13;;;;;;;23.93;51.84;100990.25;5078194;28;20024;-74
2021/08/15 05:22:58;;;;;;;16.30;11.80;;;;;;;23.92;51.91;100995.03;5077973;28;20371;-74
2021/08/15 05:25:25;;;;;;;15.35;13.60;;;;;;;23.99;51.92;100988.66;5096152;28;20035;-74
2021/08/15 05:27:51;;;;;;;19.25;12.90;;;;;;;23.92;52.00;100989.47;5095928;28;20386;-74
2021/08/15 05:30:16;;;;;;;18.60;11.35;;;;;;;23.91;52.21;100992.66;5095968;28;20031;-74
2021/08/15 05:32:42;;;;;;;15.32;13.05;;;;;;;23.95;51.92;100991.44;5096007;28;20505;-74
2021/08/15 05:35:13;;;;;;;15.48;9.93;;;;;;;23.91;52.39;100989.88;5095940;28;20060;-74
2021/08/15 05:37:40;;;;;;;17.05;13.43;;;;;;;23.97;52.33;100988.28;5095959;28;20024;-73
2021/08/15 05:40:06;;;;;;;15.63;13.40;;;;;;;24.27;51.12;100985.88;5096007;28;20103;-75
2021/08/15 05:42:32;;;;;;;22.10;9.38;;;;;;;24.40;50.62;100979.88;5095741;28;20646;-75
2021/08/15 05:44:57;;;;;;;13.35;10.48;;;;;;;24.44;50.49;100980.69;5095458;28;20100;-74
2021/08/15 05:47:23;;;;;;;15.00;10.02;;;;;;;24.46;50.69;100967.91;5077160;28;20036;-74
2021/08/15 05:49:49;;;;;;;14.73;9.88;;;;;;;24.49;51.00;100969.13;5095337;28;20063;-74
2021/08/15 05:52:14;;;;;;;14.30;10.80;;;;;;;24.55;50.44;100970.28;5077217;28;20036;-74
2021/08/15 05:54:40;;;;;;;12.18;9.70;;;;;;;24.47;50.62;100965.91;5077322;28;20028;-75
2021/08/15 05:57:06;;;;;;;19.45;10.70;;;;;;;24.40;50.78;100966.72;5095480;28;20024;-74
2021/08/15 05:59:35;;;;;;;16.20;8.25;;;;;;;24.44;50.63;100966.72;5095453;28;20063;-74
2021/08/15 06:02:02;;;;;;;13.68;9.98;;;;;;;24.46;50.51;100961.53;5095587;28;20082;-74
2021/08/15 06:04:28;;;;;;;14.27;8.82;;;;;;;24.54;50.68;100963.88;5095394;28;20028;-75
2021/08/15 06:06:54;;;;;;;12.70;8.18;;;;;;;24.51;50.55;100953.53;5095335;28;20021;-74
2021/08/15 06:09:19;;;;;;;13.93;10.77;;;;;;;24.50;50.69;100956.75;5095441;28;20382;-75
2021/08/15 06:11:46;;;;;;;14.65;9.73;;;;;;;24.56;50.73;100958.72;5095339;28;20030;-74
2021/08/15 06:14:14;;;;;;;14.63;12.63;;;;;;;24.53;50.86;100969.88;5095228;28;20016;-74
2021/08/15 06:16:40;;;;;;;17.48;14.60;;;;;;;24.49;51.05;100966.31;5095214;28;20016;-74
2021/08/15 06:19:06;;;;;;;14.82;9.15;;;;;;;24.60;50.59;100973.47;5094638;28;20023;-74
2021/08/15 06:21:31;;;;;;;15.60;13.30;;;;;;;24.71;50.40;100981.00;5095057;28;20034;-75
2021/08/15 06:23:57;;;;;;;13.10;8.68;;;;;;;24.68;50.35;100985.41;5095120;28;20417;-75
2021/08/15 06:26:23;;;;;;;23.70;11.05;;;;;;;24.75;50.24;100979.00;5095046;28;20032;-75
2021/08/15 06:28:48;;;;;;;17.77;15.23;;;;;;;24.72;50.36;100977.81;5094743;28;20048;-75
2021/08/15 06:31:14;;;;;;;25.50;18.70;;;;;;;24.77;50.62;100985.78;5094895;28;20066;-74
2021/08/15 06:33:40;;;;;;;28.52;19.08;;;;;;;24.78;50.80;100989.38;5094814;28;20103;-73
2021/08/15 06:36:05;;;;;;;20.95;17.80;;;;;;;24.70;50.81;101001.75;5094727;28;20452;-74
2021/08/15 06:38:31;;;;;;;26.15;19.88;;;;;;;24.78;50.32;101001.34;5094645;28;20067;-74
2021/08/15 06:40:57;;;;;;;23.88;20.17;;;;;;;24.77;50.40;100996.94;5094687;28;20035;-74
2021/08/15 06:43:23;;;;;;;27.17;21.48;;;;;;;24.86;50.22;101002.94;5094716;28;20038;-73
2021/08/15 06:45:48;;;;;;;22.02;12.90;;;;;;;24.85;50.66;101009.69;5094585;28;20028;-74
2021/08/15 06:48:14;;;;;;;30.38;10.52;;;;;;;24.76;50.67;101006.53;5094484;28;20097;-74
2021/08/15 06:50:40;;;;;;;45.85;15.82;;;;;;;24.78;51.24;101012.50;5094449;28;20035;-75
2021/08/15 06:53:06;;;;;;;37.78;11.50;;;;;;;24.76;50.87;101009.34;5094323;28;20028;-74
2021/08/15 06:55:32;;;;;;;22.80;13.30;;;;;;;24.72;50.87;101014.16;5094417;28;20100;-74
2021/08/15 06:57:57;;;;;;;63.95;17.23;;;;;;;24.71;51.05;101018.16;5094354;28;20035;-73
2021/08/15 07:00:24;;;;;;;45.83;11.93;;;;;;;24.68;50.79;101018.94;5094289;28;20024;-74
2021/08/15 07:02:49;;;;;;;34.38;16.75;;;;;;;24.63;51.24;101027.72;5094178;28;20024;-75
2021/08/15 07:05:16;;;;;;;22.15;12.13;;;;;;;24.56;51.41;101028.56;5076130;28;20051;-75
2021/08/15 07:07:42;;;;;;;22.60;13.85;;;;;;;24.59;51.25;101038.91;5094160;28;20034;-74
2021/08/15 07:10:09;;;;;;;23.30;14.30;;;;;;;24.64;51.53;101046.09;5094063;28;20479;-75
2021/08/15 07:12:36;;;;;;;20.55;16.58;;;;;;;24.67;50.94;101036.91;5094156;28;20410;-75
2021/08/15 07:15:02;;;;;;;22.05;18.27;;;;;;;24.76;51.21;101034.47;5094106;28;20035;-75
2021/08/15 07:17:28;;;;;;;24.08;14.75;;;;;;;24.75;51.27;101035.69;5094114;28;20028;-77
2021/08/15 07:19:54;;;;;;;17.65;13.48;;;;;;;24.70;51.24;101038.09;5075947;28;20174;-73
2021/08/15 07:22:20;;;;;;;20.27;18.15;;;;;;;24.71;51.31;101042.47;5093820;28;20103;-74
2021/08/15 07:24:46;;;;;;;17.30;12.32;;;;;;;24.67;51.33;101038.91;5075593;28;20032;-74
2021/08/15 07:27:11;;;;;;;17.50;13.23;;;;;;;24.61;51.64;101024.53;5093698;28;20031;-74
2021/08/15 07:29:37;;;;;;;17.63;13.27;;;;;;;24.60;51.17;101023.75;5092636;28;20483;-74
2021/08/15 07:32:03;;;;;;;17.30;9.60;;;;;;;24.67;51.45;101014.56;5093825;28;20115;-74
2021/08/15 07:34:28;;;;;;;18.50;12.40;;;;;;;24.66;51.39;101012.16;5086351;28;20052;-75
2021/08/15 07:36:54;;;;;;;14.00;12.43;;;;;;;24.71;51.77;101011.75;5090539;28;20128;-79
2021/08/15 07:39:20;;;;;;;14.52;11.18;;;;;;;24.74;51.77;101011.75;5093779;28;20050;-88
2021/08/15 07:41:45;;;;;;;16.83;14.93;;;;;;;24.75;51.34;101020.91;5093582;28;20378;-75
2021/08/15 07:44:11;;;;;;;18.23;16.27;;;;;;;24.81;51.13;101010.94;5075208;28;20024;-89
2021/08/15 07:46:36;;;;;;;14.50;11.55;;;;;;;24.74;51.05;101011.75;5076145;28;20020;-75
2021/08/15 07:49:02;;;;;;;10.68;9.50;;;;;;;24.66;51.32;101012.97;5050845;28;20036;-75
2021/08/15 07:51:31;;;;;;;11.35;10.25;;;;;;;24.65;50.95;101008.59;5057557;28;20028;-75
2021/08/15 07:53:58;;;;;;;12.68;11.38;;;;;;;24.66;51.03;101012.16;5064944;28;20028;-75
2021/08/15 07:56:23;;;;;;;11.88;10.77;;;;;;;24.69;50.88;101017.72;5060349;28;20037;-75
2021/08/15 07:58:49;;;;;;;10.70;9.65;;;;;;;24.63;51.41;101016.53;5075409;28;20043;-77
2021/08/15 08:01:16;;;;;;;12.00;10.38;;;;;;;24.68;50.94;101021.72;5081043;28;20035;-75
2021/08/15 08:03:42;;;;;;;13.63;12.27;;;;;;;24.64;50.90;101015.38;5070248;28;20040;-75
2021/08/15 08:06:08;;;;;;;13.93;10.75;;;;;;;24.59;51.01;101021.34;5058359;28;21289;-75
2021/08/15 08:08:34;;;;;;;6.20;5.68;;;;;;;24.61;51.05;101019.75;5066656;28;20024;-75
2021/08/15 08:10:59;;;;;;;5.90;5.40;;;;;;;24.54;51.07;101021.75;5093146;28;20038;-80
2021/08/15 08:13:25;;;;;;;9.35;8.38;;;;;;;24.40;51.69;101024.56;5093316;28;20111;-73
2021/08/15 08:15:51;;;;;;;6.50;4.60;;;;;;;24.38;51.25;101026.97;5075095;28;20032;-80
2021/08/15 08:18:18;;;;;;;3.58;2.70;;;;;;;24.44;50.89;101031.75;5093004;28;20036;-75
2021/08/15 08:20:44;;;;;;;5.50;3.05;;;;;;;24.40;51.02;101028.16;5074805;28;20052;-75
2021/08/15 08:23:15;;;;;;;5.30;2.83;;;;;;;24.40;51.00;101028.16;5066023;28;20543;-75
2021/08/15 08:25:44;;;;;;;6.18;3.50;;;;;;;24.31;51.65;101031.31;5086582;28;20039;-75
2021/08/15 08:28:10;;;;;;;4.10;3.70;;;;;;;24.43;51.22;101021.78;5092017;28;20490;-77
2021/08/15 08:30:37;;;;;;;12.50;11.70;;;;;;;24.41;51.64;101023.38;5092758;28;20028;-75
2021/08/15 08:33:03;;;;;;;9.48;8.77;;;;;;;24.34;51.77;101027.78;5092731;28;20390;-75
2021/08/15 08:35:30;;;;;;;3.83;2.70;;;;;;;24.41;51.75;101026.16;5092762;28;20035;-75
2021/08/15 08:37:56;;;;;;;5.47;2.60;;;;;;;24.44;52.04;101025.38;5092716;28;20485;-76
2021/08/15 08:40:22;;;;;;;7.60;6.80;;;;;;;24.65;51.48;101025.34;5092353;28;20059;-76
2021/08/15 08:42:49;;;;;;;7.95;7.10;;;;;;;24.70;51.31;101024.13;5092586;28;20113;-75
2021/08/15 08:45:20;;;;;;;7.03;6.53;;;;;;;24.69;51.65;101037.28;5092585;28;20490;-76
2021/08/15 08:47:48;;;;;;;4.57;4.00;;;;;;;24.73;51.18;101038.09;5092623;28;20028;-76
2021/08/15 08:50:14;;;;;;;6.13;5.53;;;;;;;24.70;51.19;101041.69;5074271;28;20028;-74
2021/08/15 08:52:41;;;;;;;8.23;5.72;;;;;;;24.81;51.00;101031.28;5092256;28;20025;-76
2021/08/15 08:55:06;;;;;;;9.02;7.78;;;;;;;24.73;51.19;101028.91;5092392;28;20026;-74
2021/08/15 08:57:33;;;;;;;8.05;7.45;;;;;;;24.73;50.99;101029.72;5092370;28;20036;-76
2021/08/15 08:59:59;;;;;;;11.02;9.43;;;;;;;24.75;50.98;101018.13;5092448;28;20028;-74
2021/08/15 09:02:26;;;;;;;5.38;3.50;;;;;;;24.75;51.61;101016.13;5092410;28;20030;-75
2021/08/15 09:04:51;;;;;;;3.17;2.78;;;;;;;24.67;51.59;101034.13;5092468;28;20024;-77
2021/08/15 09:07:19;;;;;;;5.80;2.80;;;;;;;24.74;51.42;101033.31;5072365;28;20394;-76
2021/08/15 09:09:56;;;;;;;3.80;3.05;;;;;;;24.80;51.89;101038.06;5074878;28;20104;-77
2021/08/15 09:12:34;;;;;;;6.38;5.88;;;;;;;25.09;52.35;101038.00;5059142;28;20131;-77
2021/08/15 09:15:18;;;;;;;9.73;8.70;;;;;;;25.37;51.54;101031.50;5075483;28;20111;-80
2021/08/15 09:17:45;;;;;;;8.15;7.55;;;;;;;25.30;51.07;101035.13;5055126;28;20036;-76
2021/08/15 09:20:14;;;;;;;7.55;6.93;;;;;;;25.19;51.53;101031.59;5066578;28;20886;-77
2021/08/15 09:22:40;;;;;;;3.20;2.90;;;;;;;25.16;51.10;101035.19;5069369;28;20024;-79
2021/08/15 09:25:09;;;;;;;6.18;5.72;;;;;;;25.16;51.54;101038.78;5092159;28;20107;-76
2021/08/15 09:27:49;;;;;;;8.02;5.65;;;;;;;25.36;50.55;101044.69;5092198;28;20062;-76
2021/08/15 09:30:18;;;;;;;5.63;4.07;;;;;;;25.29;50.52;101044.72;5091909;28;20056;-79
2021/08/15 09:33:05;;;;;;;4.07;3.67;;;;;;;25.41;50.41;101037.88;5092202;28;20538;-75
2021/08/15 09:35:39;;;;;;;2.67;2.47;;;;;;;25.25;50.46;101041.16;5092158;28;20489;-77
2021/08/15 09:38:13;;;;;;;3.72;3.42;;;;;;;25.43;49.96;101039.06;5073939;28;20398;-78
2021/08/15 09:40:44;;;;;;;5.57;4.38;;;;;;;25.51;50.27;101042.59;5056547;28;20391;-78
2021/08/15 09:43:26;;;;;;;6.35;3.08;;;;;;;25.72;50.01;101042.53;5053802;28;20028;-76
2021/08/15 09:45:57;;;;;;;4.55;3.50;;;;;;;25.60;49.76;101034.56;5053786;28;20405;-76
2021/08/15 09:48:32;;;;;;;3.78;3.38;;;;;;;25.63;49.80;101046.97;5071785;28;20028;-77
2021/08/15 09:51:07;;;;;;;1.67;1.50;;;;;;;25.53;49.61;101045.00;5071735;28;20505;-77
2021/08/15 09:53:34;;;;;;;2.08;1.58;;;;;;;25.51;49.56;101042.59;5071003;28;20028;-79
2021/08/15 09:56:01;;;;;;;3.72;1.77;;;;;;;25.54;49.33;101044.59;5067837;28;20055;-77
2021/08/15 09:58:27;;;;;;;3.03;2.83;;;;;;;25.59;49.31;101049.75;5058256;28;20036;-78
2021/08/15 10:00:53;;;;;;;4.75;4.30;;;;;;;25.45;49.51;101045.03;5058395;28;20399;-77
2021/08/15 10:03:19;;;;;;;2.20;1.80;;;;;;;25.40;50.00;101044.69;5078782;28;20048;-78
2021/08/15 10:05:45;;;;;;;3.97;2.20;;;;;;;25.42;49.37;101040.25;5078522;28;20032;-79
2021/08/15 10:08:11;;;;;;;4.18;2.40;;;;;;;25.43;49.46;101044.66;5055009;28;20025;-79
2021/08/15 10:10:37;;;;;;;2.85;1.90;;;;;;;25.46;49.82;101046.63;5073838;28;20024;-78
2021/08/15 10:13:05;;;;;;;1.83;1.73;;;;;;;25.59;50.04;101055.34;5073158;28;20037;-80
2021/08/15 10:15:33;;;;;;;5.57;2.13;;;;;;;25.72;50.21;101050.13;5073135;28;20442;-76
2021/08/15 10:18:00;;;;;;;2.95;1.85;;;;;;;25.96;49.53;101048.34;5055682;28;20028;-76
2021/08/15 10:20:28;;;;;;;3.10;1.73;;;;;;;26.00;49.01;101049.94;5074026;28;20479;-77
2021/08/15 10:23:07;;;;;;;2.03;1.23;;;;;;;26.09;48.71;101043.06;5073860;28;20074;-76
2021/08/15 10:25:41;;;;;;;5.07;1.90;;;;;;;26.10;48.36;101048.25;5074146;28;20390;-76
2021/08/15 10:28:08;;;;;;;4.00;2.50;;;;;;;26.11;48.14;101047.03;5074793;28;20029;-84
2021/08/15 10:30:34;;;;;;;5.50;1.95;;;;;;;26.08;47.90;101052.69;5074606;28;20051;-78
2021/08/15 10:32:59;;;;;;;3.33;2.08;;;;;;;26.03;47.53;101050.31;5074572;28;20481;-78
2021/08/15 10:35:30;;;;;;;5.13;4.72;;;;;;;26.03;47.51;101051.09;5077389;28;20108;-80
2021/08/15 10:38:20;;;;;;;4.55;3.10;;;;;;;26.22;47.74;101047.78;5076210;28;20029;-82
2021/08/15 10:40:48;;;;;;;4.03;2.00;;;;;;;26.14;47.85;101048.22;5063621;28;20510;-79
2021/08/15 10:43:22;;;;;;;3.72;2.20;;;;;;;26.17;46.91;101041.81;5056112;28;20036;-80
2021/08/15 10:46:07;;;;;;;5.20;3.00;;;;;;;26.23;47.03;101049.34;5074465;28;20040;-78
2021/08/15 10:48:32;;;;;;;5.85;3.22;;;;;;;26.22;46.97;101056.16;5071075;28;20528;-79
2021/08/15 10:51:00;;;;;;;6.10;2.80;;;;;;;26.41;46.20;101054.03;5068256;28;20107;-82
2021/08/15 10:53:26;;;;;;;4.65;2.58;;;;;;;26.36;45.85;101051.63;5082613;28;20031;-79
2021/08/15 10:55:58;;;;;;;4.15;1.80;;;;;;;26.37;45.76;101054.00;5081691;28;20028;-79
2021/08/15 10:58:42;;;;;;;4.82;1.92;;;;;;;26.42;45.57;101055.63;5078597;28;20551;-82
2021/08/15 11:01:15;;;;;;;6.47;2.40;;;;;;;26.45;45.30;101052.81;5061372;28;20043;-79
2021/08/15 11:03:46;;;;;;;6.85;2.65;;;;;;;26.46;45.18;101060.00;5061397;28;20021;-79
2021/08/15 11:06:30;;;;;;;5.28;2.20;;;;;;;26.42;45.28;101056.41;5065844;28;20025;-81
2021/08/15 11:09:01;;;;;;;4.30;1.92;;;;;;;26.50;45.50;101057.94;5056768;28;20033;-79
2021/08/15 11:11:33;;;;;;;4.82;1.98;;;;;;;26.55;45.21;101054.69;5073955;28;20077;-80
2021/08/15 11:14:20;;;;;;;5.95;1.73;;;;;;;26.53;45.00;101051.53;5074606;28;20039;-80